Time;durP1;ratioP1;P1;durP2;ratioP2;P2;SDS_P1;SDS_P2;PMS_P1;PMS_P2;Temp;Humidity;BMP_temperature;BMP_pressure;BME280_temperature;BME280_humidity;BME280_pressure;Samples;Min_cycle;Max_cycle;Signal;HPM_P1;HPM_P2
2021/04/05 00:01:08;;;;;;;1.13;0.60;;;9.80;99.90;;;;;;5105747;28;20256;-92
2021/04/05 00:03:38;;;;;;;2.17;0.77;;;9.80;99.90;;;;;;5106395;28;20305;-92
2021/04/05 00:06:10;;;;;;;2.47;0.60;;;9.80;99.90;;;;;;5130695;27;20210;-92
2021/04/05 00:08:42;;;;;;;1.00;0.60;;;9.50;99.90;;;;;;5132782;28;20230;-91
2021/04/05 00:11:18;;;;;;;2.23;0.77;;;9.50;99.90;;;;;;5136758;28;20202;-92
2021/04/05 00:13:50;;;;;;;2.57;0.60;;;9.50;99.90;;;;;;5136788;28;20197;-92
2021/04/05 00:16:21;;;;;;;1.30;0.50;;;9.40;99.90;;;;;;5125290;28;20210;-92
2021/04/05 00:18:53;;;;;;;3.60;0.80;;;9.30;99.90;;;;;;5128659;28;20263;-93
2021/04/05 00:21:27;;;;;;;2.33;0.67;;;9.30;99.90;;;;;;5123787;27;20207;-92
2021/04/05 00:23:59;;;;;;;3.17;1.00;;;9.20;99.90;;;;;;5106132;28;20221;-93
2021/04/05 00:26:32;;;;;;;1.87;0.57;;;9.20;99.90;;;;;;5102922;28;20227;-92
2021/04/05 00:29:02;;;;;;;2.43;0.80;;;9.10;99.90;;;;;;5102339;28;20233;-92
2021/04/05 00:31:34;;;;;;;4.70;0.77;;;9.20;99.90;;;;;;5103527;28;20272;-91
2021/04/05 00:34:05;;;;;;;3.03;1.03;;;9.20;99.90;;;;;;5102890;28;20256;-92
2021/04/05 00:36:36;;;;;;;2.40;0.60;;;9.20;99.90;;;;;;5103227;28;20211;-92
2021/04/05 00:39:16;;;;;;;2.43;0.70;;;9.30;99.90;;;;;;5105800;28;20202;-92
2021/04/05 00:41:50;;;;;;;1.97;0.80;;;9.40;99.90;;;;;;5119697;28;20206;-92
2021/04/05 00:44:21;;;;;;;1.30;0.73;;;9.50;99.90;;;;;;5136646;28;20207;-92
2021/04/05 00:46:51;;;;;;;1.43;0.67;;;9.60;99.90;;;;;;5139892;28;20206;-90
2021/04/05 00:49:22;;;;;;;2.00;0.90;;;9.70;99.90;;;;;;5140503;28;20194;-92
2021/04/05 00:51:53;;;;;;;1.63;0.70;;;9.70;99.90;;;;;;5139539;28;20252;-91
2021/04/05 00:54:23;;;;;;;1.77;0.80;;;9.60;99.90;;;;;;5140362;28;20194;-92
2021/04/05 00:56:56;;;;;;;2.07;0.60;;;9.50;99.90;;;;;;5140058;28;20257;-91
2021/04/05 00:59:28;;;;;;;1.23;0.70;;;9.60;99.90;;;;;;5139495;28;20220;-90
2021/04/05 01:01:59;;;;;;;1.73;0.57;;;9.70;99.90;;;;;;5123969;27;20355;-90
2021/04/05 01:04:29;;;;;;;2.87;0.70;;;9.90;99.90;;;;;;5119299;28;20247;-91
2021/04/05 01:07:00;;;;;;;1.93;0.80;;;10.00;99.90;;;;;;5119807;28;20232;-92
2021/04/05 01:09:30;;;;;;;1.87;0.90;;;10.00;99.90;;;;;;5125397;28;20275;-91
2021/04/05 01:12:04;;;;;;;2.13;0.80;;;10.00;99.90;;;;;;5122645;28;20205;-91
2021/04/05 01:14:36;;;;;;;4.23;1.10;;;9.90;99.90;;;;;;5119675;28;20198;-92
2021/04/05 01:17:08;;;;;;;2.87;1.13;;;9.80;99.90;;;;;;5119864;28;20677;-92
2021/04/05 01:19:39;;;;;;;3.10;1.20;;;9.70;99.90;;;;;;5120273;28;20281;-92
2021/04/05 01:22:12;;;;;;;2.90;0.80;;;9.60;99.90;;;;;;5118836;28;20236;-92
2021/04/05 01:24:44;;;;;;;3.87;0.90;;;9.50;99.90;;;;;;5102153;28;20218;-92
2021/04/05 01:27:15;;;;;;;5.47;1.00;;;9.20;99.90;;;;;;5117803;28;20222;-91
2021/04/05 01:29:47;;;;;;;1.43;0.77;;;9.20;99.90;;;;;;5119737;28;20202;-90
2021/04/05 01:32:18;;;;;;;3.73;0.90;;;9.40;99.90;;;;;;5117385;28;20661;-90
2021/04/05 01:34:49;;;;;;;2.67;0.97;;;9.80;99.90;;;;;;5118270;28;20220;-90
2021/04/05 01:37:22;;;;;;;3.13;1.00;;;10.10;99.90;;;;;;5117545;28;20719;-90
2021/04/05 01:39:53;;;;;;;3.13;0.83;;;10.50;99.90;;;;;;5118813;27;20233;-89
2021/04/05 01:42:23;;;;;;;4.00;1.30;;;10.50;99.90;;;;;;5118118;28;20205;-90
2021/04/05 01:44:54;;;;;;;2.07;0.70;;;10.30;99.90;;;;;;5118293;28;20616;-90
2021/04/05 01:47:25;;;;;;;2.00;0.80;;;10.00;99.90;;;;;;5118372;28;20299;-91
2021/04/05 01:49:55;;;;;;;2.20;0.90;;;9.80;99.90;;;;;;5118719;28;20218;-91
2021/04/05 01:52:30;;;;;;;0.80;0.40;;;9.60;99.90;;;;;;5117695;27;20227;-91
2021/04/05 01:55:04;;;;;;;3.97;0.87;;;9.30;99.90;;;;;;5119737;28;20212;-92
2021/04/05 01:57:34;;;;;;;3.23;0.80;;;9.20;99.90;;;;;;5123059;28;20727;-92
2021/04/05 02:00:10;;;;;;;1.53;0.60;;;9.00;99.90;;;;;;5125413;28;20206;-94
2021/04/05 02:02:40;;;;;;;2.60;0.80;;;9.00;99.90;;;;;;5126994;28;20213;-93
2021/04/05 02:05:13;;;;;;;1.10;0.70;;;8.90;99.90;;;;;;5127628;28;20214;-93
2021/04/05 02:07:45;;;;;;;4.07;1.07;;;8.80;99.90;;;;;;5111176;28;20286;-92
2021/04/05 02:10:20;;;;;;;1.67;0.90;;;8.70;99.90;;;;;;5127204;28;20192;-92
2021/04/05 02:12:52;;;;;;;3.77;1.30;;;8.50;99.90;;;;;;5122166;28;20206;-93
2021/04/05 02:15:26;;;;;;;5.83;1.17;;;8.40;99.90;;;;;;5119186;28;20236;-93
2021/04/05 02:17:57;;;;;;;3.17;0.90;;;8.30;99.90;;;;;;5119426;28;20276;-93
2021/04/05 02:20:28;;;;;;;3.53;0.70;;;8.20;99.90;;;;;;5123230;28;20236;-92
2021/04/05 02:23:09;;;;;;;2.23;1.00;;;8.10;99.90;;;;;;5117463;28;20217;-94
2021/04/05 02:28:41;;;;;;;1.80;1.00;;;8.10;99.90;;;;;;5122026;28;20229;-93
2021/04/05 02:31:13;;;;;;;3.57;1.00;;;7.90;99.90;;;;;;5119410;27;20525;-92
2021/04/05 02:33:45;;;;;;;2.20;0.87;;;7.80;99.90;;;;;;5118064;27;20226;-92
2021/04/05 02:36:18;;;;;;;6.30;1.00;;;7.70;99.90;;;;;;5120848;28;20638;-91
2021/04/05 02:38:53;;;;;;;3.47;1.00;;;7.70;99.90;;;;;;5126831;28;20220;-91
2021/04/05 02:41:25;;;;;;;2.10;1.03;;;7.50;99.90;;;;;;5125085;28;20205;-91
2021/04/05 02:43:57;;;;;;;4.60;0.80;;;7.50;99.90;;;;;;5123354;28;20209;-91
2021/04/05 02:46:30;;;;;;;1.57;0.80;;;7.40;99.90;;;;;;5118271;28;20238;-91
2021/04/05 02:49:02;;;;;;;1.93;0.90;;;7.30;99.90;;;;;;5116860;28;20256;-93
2021/04/05 02:51:34;;;;;;;2.40;0.93;;;7.20;99.90;;;;;;5120785;28;20231;-90
2021/04/05 02:54:08;;;;;;;4.03;1.30;;;7.10;99.90;;;;;;5118072;28;20658;-91
2021/04/05 02:56:46;;;;;;;2.70;1.00;;;7.00;99.90;;;;;;5120237;28;20243;-91
2021/04/05 02:59:20;;;;;;;3.13;1.00;;;6.90;99.90;;;;;;5120445;28;20202;-92
2021/04/05 03:01:53;;;;;;;2.27;1.20;;;7.00;99.90;;;;;;5123998;28;20236;-92
2021/04/05 03:04:24;;;;;;;1.83;1.00;;;7.00;99.90;;;;;;5122989;28;20223;-92
2021/04/05 03:06:56;;;;;;;2.47;1.30;;;6.90;99.90;;;;;;5119979;28;20260;-93
2021/04/05 03:09:28;;;;;;;2.07;1.10;;;6.80;99.90;;;;;;5121538;27;20269;-92
2021/04/05 03:12:00;;;;;;;3.07;1.00;;;6.70;99.90;;;;;;5118538;28;20204;-93
2021/04/05 03:14:32;;;;;;;2.33;0.90;;;6.70;99.90;;;;;;5129856;28;20227;-94
2021/04/05 03:17:04;;;;;;;2.67;1.10;;;6.60;99.90;;;;;;5134582;28;20202;-93
2021/04/05 03:19:35;;;;;;;2.17;0.80;;;6.50;99.90;;;;;;5132700;28;20214;-93
2021/04/05 03:22:06;;;;;;;3.30;1.00;;;6.50;99.90;;;;;;5117502;28;20233;-92
2021/04/05 03:24:40;;;;;;;1.63;0.90;;;6.30;99.90;;;;;;5117472;28;20232;-92
2021/04/05 03:27:11;;;;;;;2.10;1.10;;;6.20;99.90;;;;;;5118475;28;20214;-93
2021/04/05 03:29:44;;;;;;;3.37;1.60;;;6.20;99.90;;;;;;5115667;28;20206;-92
2021/04/05 03:32:19;;;;;;;3.27;1.17;;;6.10;99.90;;;;;;5114216;28;20202;-92
2021/04/05 03:34:58;;;;;;;3.73;1.40;;;6.00;99.90;;;;;;5116185;28;20234;-91
2021/04/05 03:37:34;;;;;;;1.73;1.00;;;5.90;99.90;;;;;;5115629;28;20214;-91
2021/04/05 03:40:09;;;;;;;2.60;1.23;;;5.90;99.90;;;;;;5116160;28;20232;-91
2021/04/05 03:42:45;;;;;;;2.00;1.00;;;5.90;99.90;;;;;;5115497;28;20204;-91
2021/04/05 03:45:23;;;;;;;2.17;1.17;;;5.80;99.90;;;;;;5116377;28;20206;-91
2021/04/05 03:48:05;;;;;;;1.93;1.10;;;5.80;99.90;;;;;;5120252;28;20247;-93
2021/04/05 03:50:45;;;;;;;2.40;1.40;;;5.80;99.90;;;;;;5118622;28;20206;-91
2021/04/05 03:53:34;;;;;;;4.23;1.47;;;5.80;99.90;;;;;;5121231;28;20709;-92
2021/04/05 03:56:16;;;;;;;3.30;1.37;;;5.60;99.90;;;;;;5123951;28;20198;-91
2021/04/05 03:58:57;;;;;;;4.80;1.60;;;5.70;99.90;;;;;;5121975;28;20661;-91
2021/04/05 04:01:31;;;;;;;1.80;1.20;;;5.70;99.90;;;;;;5126799;28;20255;-95
2021/04/05 04:04:08;;;;;;;2.33;1.20;;;5.60;99.90;;;;;;5123324;28;20317;-92
2021/04/05 04:06:50;;;;;;;1.93;1.13;;;5.70;99.90;;;;;;5129937;28;20216;-90
2021/04/05 04:09:24;;;;;;;2.10;1.07;;;5.60;99.90;;;;;;5130503;28;20243;-92
2021/04/05 04:12:02;;;;;;;2.70;1.53;;;5.60;99.90;;;;;;5127912;28;20423;-92
2021/04/05 04:14:34;;;;;;;3.67;1.13;;;5.50;99.90;;;;;;5129966;28;20205;-92
2021/04/05 04:17:09;;;;;;;1.50;1.10;;;5.50;99.90;;;;;;5127733;28;20206;-93
2021/04/05 04:19:44;;;;;;;2.93;1.33;;;5.40;99.90;;;;;;5127219;28;20209;-92
2021/04/05 04:22:16;;;;;;;2.10;0.80;;;5.30;99.90;;;;;;5123162;28;20255;-93
2021/04/05 04:24:48;;;;;;;2.27;1.10;;;5.30;99.90;;;;;;5119230;28;20222;-92
2021/04/05 04:27:26;;;;;;;2.67;1.00;;;5.20;99.90;;;;;;5121606;28;20210;-93
2021/04/05 04:29:58;;;;;;;1.93;1.20;;;5.20;99.90;;;;;;5120557;28;20222;-93
2021/04/05 04:32:28;;;;;;;2.30;1.03;;;5.10;99.90;;;;;;5119273;28;20202;-91
2021/04/05 04:34:59;;;;;;;3.50;1.30;;;5.10;99.90;;;;;;5117940;28;20278;-91
2021/04/05 04:37:30;;;;;;;2.13;0.90;;;5.10;99.90;;;;;;5118650;27;20562;-91
2021/04/05 04:40:01;;;;;;;1.60;1.10;;;5.10;99.90;;;;;;5122263;28;20229;-91
2021/04/05 04:42:40;;;;;;;1.90;0.90;;;5.10;99.90;;;;;;5121084;28;20206;-91
2021/04/05 04:45:16;;;;;;;1.90;1.20;;;5.10;99.90;;;;;;5121168;28;20289;-91
2021/04/05 04:47:48;;;;;;;1.97;1.10;;;5.00;99.90;;;;;;5124078;28;20218;-90
2021/04/05 04:50:25;;;;;;;1.87;1.10;;;4.90;99.90;;;;;;5122543;27;20236;-91
2021/04/05 04:52:57;;;;;;;2.83;1.00;;;4.90;99.90;;;;;;5119730;28;20544;-90
2021/04/05 04:55:40;;;;;;;1.50;1.00;;;4.90;99.90;;;;;;5122770;28;20186;-92
2021/04/05 04:58:15;;;;;;;3.10;0.70;;;4.80;99.90;;;;;;5122201;28;20251;-89
2021/04/05 05:00:46;;;;;;;1.90;1.00;;;4.80;99.90;;;;;;5123444;28;20669;-91
2021/04/05 05:03:18;;;;;;;2.37;0.73;;;4.80;99.90;;;;;;5121481;28;20198;-91
2021/04/05 05:05:52;;;;;;;2.07;0.80;;;4.70;99.90;;;;;;5121678;27;20547;-91
2021/04/05 05:08:29;;;;;;;2.73;1.00;;;4.70;99.90;;;;;;5122572;28;20226;-93
2021/04/05 05:11:01;;;;;;;1.60;1.03;;;4.70;99.90;;;;;;5123019;28;20213;-92
2021/04/05 05:13:34;;;;;;;1.40;1.10;;;4.60;99.90;;;;;;5121526;28;20221;-92
2021/04/05 05:16:07;;;;;;;2.27;0.97;;;4.60;99.90;;;;;;5120602;28;20206;-93
2021/04/05 05:18:37;;;;;;;2.90;1.17;;;4.60;99.90;;;;;;5124167;28;20206;-92
2021/04/05 05:21:16;;;;;;;1.57;1.10;;;4.50;99.90;;;;;;5122313;28;20217;-92
2021/04/05 05:23:47;;;;;;;4.77;1.07;;;4.50;99.90;;;;;;5120492;27;20206;-91
2021/04/05 05:26:23;;;;;;;2.30;0.90;;;4.40;99.90;;;;;;5123729;28;20558;-91
2021/04/05 05:28:58;;;;;;;1.30;1.00;;;4.40;99.90;;;;;;5122677;27;20721;-91
2021/04/05 05:31:30;;;;;;;3.20;1.17;;;4.30;99.90;;;;;;5125413;28;20190;-92
2021/04/05 05:34:03;;;;;;;2.80;0.77;;;4.30;99.90;;;;;;5130866;28;20206;-92
2021/04/05 05:36:34;;;;;;;2.47;1.40;;;4.30;99.90;;;;;;5133476;28;20203;-91
2021/04/05 05:39:05;;;;;;;2.97;1.00;;;4.30;99.90;;;;;;5133178;28;20206;-91
2021/04/05 05:42:07;;;;;;;1.80;1.10;;;4.20;99.90;;;;;;5124659;28;20214;-92
2021/04/05 05:44:53;;;;;;;3.23;1.13;;;4.20;99.90;;;;;;5122156;27;20212;-93
2021/04/05 05:47:32;;;;;;;1.73;0.90;;;4.20;99.90;;;;;;5120526;28;20202;-92
2021/04/05 05:50:10;;;;;;;3.27;1.07;;;4.10;99.90;;;;;;5136445;28;20202;-92
2021/04/05 05:52:54;;;;;;;1.53;0.90;;;4.10;99.90;;;;;;5137286;28;20202;-92
2021/04/05 05:55:37;;;;;;;3.47;0.97;;;4.00;99.90;;;;;;5128857;28;20239;-92
2021/04/05 05:58:14;;;;;;;1.20;1.00;;;4.10;99.90;;;;;;5118473;28;20743;-91
2021/04/05 06:00:52;;;;;;;2.27;0.90;;;4.10;99.90;;;;;;5118607;28;20213;-91
2021/04/05 06:03:47;;;;;;;3.00;1.03;;;4.00;99.90;;;;;;5117430;28;20209;-92
2021/04/05 06:06:21;;;;;;;1.30;0.77;;;4.00;99.90;;;;;;5121217;28;20230;-92
2021/04/05 06:09:04;;;;;;;1.57;0.73;;;3.90;99.90;;;;;;5125151;28;20302;-92
2021/04/05 06:11:53;;;;;;;2.00;0.83;;;3.90;99.90;;;;;;5127675;28;20262;-91
2021/04/05 06:14:48;;;;;;;2.17;0.93;;;3.90;99.90;;;;;;5127867;28;20217;-91
2021/04/05 06:17:31;;;;;;;3.90;1.07;;;3.90;99.90;;;;;;5135499;27;20227;-92
2021/04/05 06:20:08;;;;;;;1.20;0.80;;;3.80;99.90;;;;;;5138213;28;20202;-91
2021/04/05 06:23:00;;;;;;;3.63;1.20;;;3.80;99.90;;;;;;5137291;28;20215;-90
2021/04/05 06:25:38;;;;;;;3.20;1.00;;;3.80;99.90;;;;;;5138113;28;20209;-91
2021/04/05 06:28:25;;;;;;;1.97;1.03;;;3.80;99.90;;;;;;5137605;28;20209;-91
2021/04/05 06:31:17;;;;;;;1.20;0.77;;;3.80;99.90;;;;;;5132009;28;20198;-91
2021/04/05 06:33:53;;;;;;;1.93;1.00;;;3.70;99.90;;;;;;5122373;28;20619;-92
2021/04/05 06:36:35;;;;;;;1.87;1.00;;;3.70;99.90;;;;;;5118924;28;20206;-91
2021/04/05 06:39:10;;;;;;;1.67;1.10;;;3.60;99.90;;;;;;5118135;28;20226;-92
2021/04/05 06:42:22;;;;;;;2.50;1.13;;;3.60;99.90;;;;;;5099060;28;20209;-92
2021/04/05 06:45:40;;;;;;;1.03;0.73;;;3.60;99.90;;;;;;5116899;28;20255;-91
2021/04/05 06:48:35;;;;;;;2.63;1.03;;;3.50;99.90;;;;;;5091577;28;20701;-92
2021/04/05 06:51:25;;;;;;;2.20;0.80;;;3.40;99.90;;;;;;5116793;28;20225;-92
2021/04/05 06:54:20;;;;;;;3.57;1.07;;;3.40;99.90;;;;;;5116293;28;20221;-91
2021/04/05 06:57:03;;;;;;;2.93;1.10;;;3.40;99.90;;;;;;5116127;28;20202;-91
2021/04/05 06:59:58;;;;;;;1.67;1.00;;;3.40;99.90;;;;;;5125841;28;20206;-92
2021/04/05 07:03:10;;;;;;;1.77;1.10;;;3.30;99.90;;;;;;5122932;28;20286;-93
2021/04/05 07:06:07;;;;;;;2.43;0.80;;;3.30;99.90;;;;;;5094087;28;20274;-92
2021/04/05 07:08:53;;;;;;;3.40;0.80;;;3.40;99.90;;;;;;5117154;28;20233;-92
2021/04/05 07:11:29;;;;;;;3.70;1.10;;;3.40;99.90;;;;;;5117651;28;20255;-92
2021/04/05 07:14:14;;;;;;;1.47;0.67;;;3.40;99.90;;;;;;5122300;28;20213;-92
2021/04/05 07:16:54;;;;;;;3.23;0.93;;;3.40;99.90;;;;;;5122816;28;20206;-92
2021/04/05 07:19:50;;;;;;;2.83;1.23;;;3.40;99.90;;;;;;5121964;28;20226;-92
2021/04/05 07:22:33;;;;;;;2.87;1.10;;;3.40;99.90;;;;;;5116259;28;20257;-92
2021/04/05 07:25:08;;;;;;;2.03;0.87;;;3.40;99.90;;;;;;5118825;28;20221;-91
2021/04/05 07:27:48;;;;;;;1.77;1.00;;;3.40;99.90;;;;;;5118474;28;20201;-91
2021/04/05 07:30:24;;;;;;;2.73;1.10;;;3.40;99.90;;;;;;5117483;28;20697;-91
2021/04/05 07:33:08;;;;;;;3.43;1.27;;;3.40;99.90;;;;;;5119096;28;20229;-91
2021/04/05 07:35:49;;;;;;;2.23;1.30;;;3.40;99.90;;;;;;5117930;28;20214;-91
2021/04/05 07:38:26;;;;;;;6.43;1.50;;;3.40;99.90;;;;;;5116372;28;20231;-91
2021/04/05 07:41:05;;;;;;;2.40;1.40;;;3.30;99.90;;;;;;5117802;28;20208;-91
2021/04/05 07:44:00;;;;;;;3.53;1.23;;;3.30;99.90;;;;;;5115451;28;20201;-90
2021/04/05 07:46:37;;;;;;;2.57;1.20;;;3.30;99.90;;;;;;5116290;28;20659;-90
2021/04/05 07:49:12;;;;;;;4.10;1.47;;;3.30;99.90;;;;;;5115747;28;20222;-91
2021/04/05 07:51:52;;;;;;;3.07;1.40;;;3.30;99.90;;;;;;5115175;28;20230;-91
2021/04/05 07:54:25;;;;;;;3.07;1.17;;;3.30;99.90;;;;;;5116073;28;20259;-91
2021/04/05 07:57:14;;;;;;;1.30;1.00;;;3.30;99.90;;;;;;5116830;28;20226;-92
2021/04/05 07:59:54;;;;;;;5.10;1.20;;;3.20;99.90;;;;;;5116163;28;20232;-93
2021/04/05 08:02:40;;;;;;;2.07;0.93;;;3.20;99.90;;;;;;5116025;28;20213;-91
2021/04/05 08:05:27;;;;;;;3.07;0.90;;;3.20;99.90;;;;;;5116365;28;20237;-91
2021/04/05 08:08:11;;;;;;;3.23;1.13;;;3.20;99.90;;;;;;5128529;28;20240;-91
2021/04/05 08:10:56;;;;;;;2.77;1.20;;;3.20;99.90;;;;;;5130079;28;20190;-90
2021/04/05 08:13:45;;;;;;;1.77;1.13;;;3.20;99.90;;;;;;5115402;28;20542;-90
2021/04/05 08:16:23;;;;;;;3.37;1.30;;;3.20;99.90;;;;;;5109108;28;20203;-90
2021/04/05 08:19:02;;;;;;;1.50;0.90;;;3.20;99.90;;;;;;5107997;28;20573;-90
2021/04/05 08:21:37;;;;;;;4.60;1.27;;;3.10;99.90;;;;;;5108226;28;20220;-90
2021/04/05 08:24:26;;;;;;;2.40;0.90;;;3.10;99.90;;;;;;5111078;28;20191;-91
2021/04/05 08:27:09;;;;;;;1.87;1.00;;;3.20;99.90;;;;;;5106735;28;20260;-91
2021/04/05 08:29:49;;;;;;;2.60;1.20;;;3.20;99.90;;;;;;5113232;28;20772;-91
2021/04/05 08:32:38;;;;;;;3.70;1.20;;;3.10;99.90;;;;;;5098410;28;20620;-92
2021/04/05 08:35:20;;;;;;;4.57;1.33;;;3.10;99.90;;;;;;5098922;28;20652;-92
2021/04/05 08:38:05;;;;;;;3.47;1.10;;;3.10;99.90;;;;;;5114703;28;20251;-92
2021/04/05 08:40:46;;;;;;;5.97;1.20;;;3.10;99.90;;;;;;5099744;28;20202;-92
2021/04/05 08:43:26;;;;;;;4.53;1.53;;;3.00;99.90;;;;;;5098388;28;20203;-91
2021/04/05 08:46:12;;;;;;;3.77;0.97;;;3.00;99.90;;;;;;5098834;28;20230;-91
2021/04/05 08:48:48;;;;;;;1.03;0.90;;;3.00;99.90;;;;;;5098791;28;20234;-91
2021/04/05 08:51:25;;;;;;;2.60;1.50;;;2.90;99.90;;;;;;5117080;28;20230;-91
2021/04/05 08:53:59;;;;;;;3.60;1.30;;;2.90;99.90;;;;;;5101980;28;20203;-92
2021/04/05 08:56:40;;;;;;;2.67;1.27;;;2.90;99.90;;;;;;5106136;28;20252;-92
2021/04/05 08:59:15;;;;;;;1.60;1.20;;;2.80;99.90;;;;;;5102207;28;20234;-92
2021/04/05 09:01:51;;;;;;;3.57;1.43;;;2.80;99.90;;;;;;5097816;28;20278;-92
2021/04/05 09:04:26;;;;;;;2.77;1.20;;;2.70;99.90;;;;;;5097938;28;20201;-91
2021/04/05 09:07:11;;;;;;;5.10;1.50;;;2.70;99.90;;;;;;5098783;28;20221;-93
2021/04/05 09:09:43;;;;;;;3.13;1.10;;;2.70;99.90;;;;;;5109913;28;20233;-91
2021/04/05 09:12:15;;;;;;;3.47;1.10;;;2.70;99.90;;;;;;5118092;28;20363;-90
2021/04/05 09:15:11;;;;;;;2.47;1.13;;;2.70;99.90;;;;;;5118613;28;20210;-91
2021/04/05 09:18:10;;;;;;;3.80;1.20;;;2.60;99.90;;;;;;5117167;27;20240;-92
2021/04/05 09:20:59;;;;;;;3.87;0.90;;;2.60;99.90;;;;;;5118395;28;20229;-91
2021/04/05 09:23:54;;;;;;;2.87;1.47;;;2.60;99.90;;;;;;5116918;28;20198;-91
2021/04/05 09:27:17;;;;;;;2.03;0.90;;;2.60;99.90;;;;;;5118728;28;20202;-92
2021/04/05 09:30:02;;;;;;;1.60;0.90;;;2.60;99.90;;;;;;5103764;28;20691;-92
2021/04/05 09:32:50;;;;;;;2.80;1.10;;;2.60;99.90;;;;;;5117621;28;20264;-92
2021/04/05 09:35:43;;;;;;;2.07;1.03;;;2.60;99.90;;;;;;5116465;28;20607;-92
2021/04/05 09:38:43;;;;;;;2.43;1.00;;;2.60;99.90;;;;;;5118865;28;20236;-91
2021/04/05 09:41:37;;;;;;;2.83;1.10;;;2.50;99.90;;;;;;5117701;28;20206;-91
2021/04/05 09:44:46;;;;;;;3.13;1.10;;;2.50;99.90;;;;;;5118997;27;20266;-91
2021/04/05 09:47:49;;;;;;;4.67;1.30;;;2.50;99.90;;;;;;5091398;28;20255;-89
2021/04/05 09:50:43;;;;;;;4.60;1.20;;;2.50;99.90;;;;;;5125058;28;20257;-91
2021/04/05 09:53:45;;;;;;;1.87;0.93;;;2.50;99.90;;;;;;5122436;27;20249;-91
2021/04/05 09:56:21;;;;;;;3.03;1.37;;;2.40;99.90;;;;;;5119197;28;20201;-92
2021/04/05 09:58:56;;;;;;;3.83;1.20;;;2.30;99.90;;;;;;5117544;28;20213;-92
2021/04/05 10:01:30;;;;;;;3.23;1.10;;;2.30;99.90;;;;;;5120157;28;20212;-92
2021/04/05 10:04:05;;;;;;;2.00;0.90;;;2.20;99.90;;;;;;5121333;28;20202;-92
2021/04/05 10:06:41;;;;;;;4.57;1.13;;;2.20;99.90;;;;;;5123117;28;20210;-92
2021/04/05 10:09:13;;;;;;;6.33;1.03;;;2.30;99.90;;;;;;5120969;28;20269;-92
2021/04/05 10:11:46;;;;;;;1.77;0.90;;;2.20;99.90;;;;;;5121263;28;20213;-92
2021/04/05 10:14:23;;;;;;;2.57;1.40;;;2.00;99.90;;;;;;5128435;27;20235;-91
2021/04/05 10:16:55;;;;;;;5.43;1.70;;;1.90;99.90;;;;;;5126608;28;20201;-90
2021/04/05 10:19:30;;;;;;;3.50;1.10;;;1.90;99.90;;;;;;5126983;28;20213;-91
2021/04/05 10:22:03;;;;;;;3.47;1.00;;;1.90;99.90;;;;;;5125891;28;20228;-91
2021/04/05 10:24:35;;;;;;;4.07;1.40;;;1.90;99.90;;;;;;5116824;28;20230;-91
2021/04/05 10:27:10;;;;;;;3.80;1.50;;;1.90;99.90;;;;;;5116963;28;20232;-91
2021/04/05 10:29:43;;;;;;;2.00;1.37;;;1.80;99.90;;;;;;5103504;28;20230;-91
2021/04/05 10:32:19;;;;;;;1.70;1.00;;;1.80;99.90;;;;;;5105368;28;20206;-92
2021/04/05 10:34:55;;;;;;;2.23;1.20;;;1.80;99.90;;;;;;5117715;28;20623;-92
2021/04/05 10:37:32;;;;;;;3.17;1.17;;;1.80;99.90;;;;;;5116966;28;20227;-92
2021/04/05 10:40:04;;;;;;;3.33;1.47;;;1.80;99.90;;;;;;5117217;28;20213;-92
2021/04/05 10:42:40;;;;;;;3.03;1.10;;;1.80;99.90;;;;;;5115982;28;20198;-91
2021/04/05 10:45:17;;;;;;;1.60;1.00;;;1.80;99.90;;;;;;5117931;27;20210;-91
2021/04/05 10:47:57;;;;;;;1.80;0.70;;;1.80;99.90;;;;;;5117187;27;20233;-92
2021/04/05 10:50:30;;;;;;;4.90;1.20;;;1.80;99.90;;;;;;5116954;28;20273;-92
2021/04/05 10:53:07;;;;;;;4.57;1.17;;;1.80;99.90;;;;;;5117200;28;20220;-93
2021/04/05 10:55:41;;;;;;;3.77;1.20;;;1.80;99.90;;;;;;5117175;28;20259;-93
2021/04/05 10:58:18;;;;;;;1.53;1.03;;;1.80;99.90;;;;;;5117352;28;20253;-91
2021/04/05 11:00:55;;;;;;;3.47;1.20;;;1.80;99.90;;;;;;5116912;28;20209;-90
2021/04/05 11:03:30;;;;;;;1.57;1.00;;;1.80;99.90;;;;;;5118721;28;20198;-91
2021/04/05 11:06:07;;;;;;;2.03;0.97;;;1.70;99.90;;;;;;5111784;28;20209;-91
2021/04/05 11:08:43;;;;;;;2.13;0.93;;;1.70;99.90;;;;;;5095123;28;20214;-92
2021/04/05 11:11:21;;;;;;;3.53;1.47;;;1.60;99.90;;;;;;5096851;28;20198;-92
2021/04/05 11:13:54;;;;;;;2.00;0.97;;;1.60;99.90;;;;;;5112758;28;20535;-91
2021/04/05 11:16:25;;;;;;;2.97;1.40;;;1.60;99.90;;;;;;5097917;28;20285;-91
2021/04/05 11:19:07;;;;;;;2.67;1.20;;;1.60;99.90;;;;;;5096101;28;20207;-93
2021/04/05 11:21:42;;;;;;;5.63;0.90;;;1.60;99.90;;;;;;5097875;28;20202;-93
2021/04/05 11:24:17;;;;;;;3.93;1.10;;;1.60;99.90;;;;;;5096133;28;20247;-93
2021/04/05 11:26:58;;;;;;;1.60;1.27;;;1.60;99.90;;;;;;5098679;28;20206;-91
2021/04/05 11:29:30;;;;;;;3.63;1.10;;;1.70;99.90;;;;;;5105628;28;20260;-92
2021/04/05 11:32:05;;;;;;;3.73;1.00;;;1.70;99.90;;;;;;5117793;28;20224;-91
2021/04/05 11:34:40;;;;;;;5.03;1.00;;;1.80;99.90;;;;;;5116094;28;20305;-90
2021/04/05 11:37:14;;;;;;;4.67;1.17;;;1.90;99.90;;;;;;5118660;28;20216;-90
2021/04/05 11:39:49;;;;;;;3.83;1.20;;;2.00;99.90;;;;;;5120547;28;20227;-89
2021/04/05 11:42:21;;;;;;;2.73;1.00;;;2.10;99.90;;;;;;5115841;28;20254;-90
2021/04/05 11:45:18;;;;;;;2.73;1.17;;;2.20;99.90;;;;;;5122565;28;20202;-90
2021/04/05 11:47:51;;;;;;;1.60;0.97;;;2.20;99.90;;;;;;5120146;28;20263;-91
2021/04/05 11:50:28;;;;;;;2.87;1.10;;;2.30;99.90;;;;;;5126185;28;20225;-91
2021/04/05 11:53:06;;;;;;;3.33;1.00;;;2.40;99.90;;;;;;5118045;28;20198;-91
2021/04/05 11:55:41;;;;;;;2.13;1.20;;;2.40;99.90;;;;;;5120918;28;20194;-92
2021/04/05 11:58:21;;;;;;;2.63;0.87;;;2.50;99.90;;;;;;5122041;28;20232;-90
2021/04/05 12:00:58;;;;;;;3.53;1.10;;;2.70;99.90;;;;;;5132762;28;20202;-90
2021/04/05 12:03:35;;;;;;;1.60;1.20;;;2.70;99.90;;;;;;5135373;28;20215;-90
2021/04/05 12:06:10;;;;;;;1.90;1.10;;;2.70;99.90;;;;;;5136167;28;20213;-91
2021/04/05 12:08:51;;;;;;;3.00;0.97;;;2.80;99.90;;;;;;5137033;28;20189;-90
2021/04/05 12:11:25;;;;;;;1.50;0.87;;;2.80;99.90;;;;;;5137010;28;20216;-91
2021/04/05 12:14:00;;;;;;;1.57;1.00;;;2.80;99.90;;;;;;5133302;28;20209;-92
2021/04/05 12:16:32;;;;;;;2.93;0.97;;;2.70;99.90;;;;;;5126875;28;20236;-91
2021/04/05 12:19:04;;;;;;;3.60;0.87;;;2.80;99.90;;;;;;5123254;28;20727;-90
2021/04/05 12:21:38;;;;;;;4.00;1.40;;;2.90;99.90;;;;;;5123376;28;20202;-92
2021/04/05 12:24:10;;;;;;;2.67;1.13;;;2.80;99.90;;;;;;5124463;28;20229;-90
2021/04/05 12:26:43;;;;;;;2.63;1.13;;;2.60;99.90;;;;;;5119221;28;20639;-91
2021/04/05 12:29:15;;;;;;;4.17;0.80;;;2.60;99.90;;;;;;5117398;28;20720;-91
2021/04/05 12:31:51;;;;;;;2.17;1.20;;;2.60;99.90;;;;;;5126365;28;20205;-90
2021/04/05 12:34:28;;;;;;;1.83;1.20;;;2.60;99.90;;;;;;5128470;28;20706;-90
2021/04/05 12:37:02;;;;;;;2.53;1.00;;;2.60;99.90;;;;;;5134405;28;20250;-92
2021/04/05 12:39:35;;;;;;;4.43;1.33;;;2.50;99.90;;;;;;5134272;28;20337;-91
2021/04/05 12:42:12;;;;;;;2.67;1.13;;;2.50;99.90;;;;;;5130544;28;20214;-90
2021/04/05 12:44:53;;;;;;;2.27;1.23;;;2.50;99.90;;;;;;5119249;28;20255;-92
2021/04/05 12:47:33;;;;;;;1.77;1.00;;;2.50;99.90;;;;;;5115227;28;20233;-90
2021/04/05 12:50:08;;;;;;;2.80;1.13;;;2.50;99.90;;;;;;5116118;28;20222;-91
2021/04/05 12:52:40;;;;;;;1.80;1.23;;;2.40;99.90;;;;;;5117076;28;20206;-91
2021/04/05 12:55:14;;;;;;;2.03;1.20;;;2.30;99.90;;;;;;5114882;28;20699;-92
2021/04/05 12:57:47;;;;;;;2.37;0.80;;;2.40;99.90;;;;;;5115916;28;20228;-91
2021/04/05 13:00:22;;;;;;;4.70;1.30;;;2.40;99.90;;;;;;5119051;28;20604;-91
2021/04/05 13:03:01;;;;;;;1.00;0.90;;;2.40;99.90;;;;;;5120890;28;20190;-91
2021/04/05 13:05:39;;;;;;;5.50;1.47;;;2.30;99.90;;;;;;5119737;28;20249;-91
2021/04/05 13:08:20;;;;;;;4.23;1.13;;;2.20;99.90;;;;;;5120075;28;20240;-91
2021/04/05 13:10:59;;;;;;;1.60;1.17;;;2.20;99.90;;;;;;5120845;28;20230;-91
2021/04/05 13:13:36;;;;;;;1.60;1.13;;;2.30;99.90;;;;;;5119486;28;20206;-91
2021/04/05 13:16:15;;;;;;;3.20;1.13;;;2.10;99.90;;;;;;5121357;28;20242;-91
2021/04/05 13:19:02;;;;;;;4.20;1.33;;;2.00;99.90;;;;;;5128494;28;20213;-90
2021/04/05 13:21:39;;;;;;;3.67;1.30;;;1.90;99.90;;;;;;5131004;28;20247;-91
2021/04/05 13:24:20;;;;;;;2.00;1.30;;;1.90;99.90;;;;;;5123358;28;20205;-90
2021/04/05 13:26:55;;;;;;;3.83;1.03;;;1.90;99.90;;;;;;5118122;28;20281;-90
2021/04/05 13:29:30;;;;;;;3.07;1.13;;;1.80;99.90;;;;;;5117692;28;20236;-91
2021/04/05 13:32:03;;;;;;;3.87;1.50;;;1.80;99.90;;;;;;5116719;28;20665;-91
2021/04/05 13:34:35;;;;;;;2.03;1.13;;;1.80;99.90;;;;;;5117252;28;20643;-91
2021/04/05 13:37:08;;;;;;;2.13;1.27;;;1.70;99.90;;;;;;5118558;28;20209;-91
2021/04/05 13:39:40;;;;;;;4.50;1.70;;;1.70;99.90;;;;;;5117869;28;20206;-92
2021/04/05 13:42:14;;;;;;;3.33;1.10;;;1.60;99.90;;;;;;5117799;27;20228;-91
2021/04/05 13:44:49;;;;;;;2.23;1.13;;;1.60;99.90;;;;;;5118375;28;20232;-90
2021/04/05 13:47:27;;;;;;;2.77;1.30;;;1.60;99.90;;;;;;5119516;28;20205;-90
2021/04/05 13:50:01;;;;;;;3.27;1.30;;;1.50;99.90;;;;;;5119107;28;20225;-91
2021/04/05 13:52:34;;;;;;;2.13;1.40;;;1.50;99.90;;;;;;5117328;28;20234;-91
2021/04/05 13:55:13;;;;;;;3.00;1.17;;;1.50;99.90;;;;;;5118848;28;20296;-92